Pagrindinis puslapis
METAR-TAF:

METAR-TAF

Oro uostai :

Bukareštas, Rumunija

platuma: 44-33N, ilguma: 026-06E, Aukštis: 95 m

Dabartinis oras

Ataskaita buvo paskelbta 40 minutes, ne 03:30 UTC
Vėjas 4 kt iš Šiaurės Rytų
Temperatūra 4°C
Drėgmė 87%
Slėgis 1024 hPa
Matomumas 10 km arba daugiau
nėra debesų žemiau 1500 m ir nėra kamuolinių lietaus debesų

METAR: LROP 220330Z 04004KT CAVOK 04/02 Q1024 NOSIG

Laikas: 06:10 (04:10 UTC)

Prognozė

Ataskaita buvo paskelbta 5 valandos ir 10 minutes, ne 23:00 UTC
Prognozė galioja nuo 22 metu 00 UTC su 22 metu 24 UTC
Vėjas 4 kt nuo kintamojo kryptimis
Matomumas: 5000 m
rūkana
Laikinai
nuo 22 metu 00 UTC su 22 metu 06 UTC
Matomumas: 1500 m
Su prošvaistėmis ne aukštis 500 ft
rūkana
Tapsmas
nuo 22 metu 06 UTC su 22 metu 08 UTC
Matomumas 10 km arba daugiau
nėra debesų žemiau 1500 m ir nėra kamuolinių lietaus debesų
Tapsmas
nuo 22 metu 19 UTC su 22 metu 21 UTC
Vėjas 10 kt iš Vakarų

TAF: LROP 212300Z 2200/2224 VRB04KT 5000 BR NSC TEMPO 2200/2206 1500 BR BKN005 BECMG 2206/2208 CAVOK BECMG 2219/2221 26010KT

Orai ataskaitas ir orų prognozės (METAR, TAF).

turimą stotys yra geltonos ir raudonos taškus žemėlapyje.

Perkelti pele per norėdami pamatyti stoties vardą.

Tada spustelėkite, norėdami matyti oro stebėjimo ir prognozės.

Norėdami pakeisti žemėlapį: spustelėkite ant žalios mygtukų su juodo kryžiaus žemyn,; žalią mygtuką su brūkšneliu, jei norite nutolinti; arba žalių rodyklių gretimoms žemėlapius.


METAR-TAF: